createdAt,value
2023-01-19T00:03:38.460Z,38.5
2023-01-19T00:09:00.556Z,38.4
2023-01-19T00:14:24.340Z,38.4
2023-01-19T00:19:49.594Z,38.4
2023-01-19T00:24:41.438Z,38.4
2023-01-19T00:30:04.213Z,38.3
2023-01-19T00:35:27.516Z,38.3
2023-01-19T00:40:49.464Z,38.3
2023-01-19T00:46:12.264Z,38.2
2023-01-19T00:51:34.975Z,38.1
2023-01-19T00:56:58.067Z,38.1
2023-01-19T01:02:36.072Z,38.1
2023-01-19T01:13:38.787Z,38
2023-01-19T01:19:02.427Z,37.9
2023-01-19T01:24:26.658Z,37.9
2023-01-19T01:29:51.526Z,37.9
2023-01-19T01:35:36.271Z,37.8
2023-01-19T01:40:58.241Z,37.8
2023-01-19T01:46:05.246Z,37.8
2023-01-19T01:51:28.421Z,37.8
2023-01-19T01:57:04.265Z,37.7
2023-01-19T02:02:12.153Z,37.6
2023-01-19T02:07:37.000Z,37.6
2023-01-19T02:13:00.093Z,37.6
2023-01-19T02:18:22.008Z,37.6
2023-01-19T02:23:29.038Z,37.5
2023-01-19T02:28:52.100Z,37.4
2023-01-19T02:34:14.723Z,37.4
2023-01-19T02:39:37.882Z,37.4
2023-01-19T02:45:00.902Z,37.3
2023-01-19T02:50:23.551Z,37.3
2023-01-19T02:55:46.829Z,37.3
2023-01-19T03:01:09.719Z,37.3
2023-01-19T03:06:16.724Z,37.2
2023-01-19T03:11:23.842Z,37.2
2023-01-19T03:16:48.626Z,37.1
2023-01-19T03:22:10.144Z,37.1
2023-01-19T03:27:33.477Z,37.1
2023-01-19T03:32:56.729Z,37
2023-01-19T03:38:18.552Z,36.9
2023-01-19T03:43:25.874Z,36.9
2023-01-19T03:48:49.196Z,36.9
2023-01-19T03:54:11.514Z,36.8
2023-01-19T03:59:33.872Z,36.8
2023-01-19T04:04:57.487Z,36.8
2023-01-19T04:10:19.487Z,36.8
2023-01-19T04:15:42.133Z,36.7
2023-01-19T04:21:05.095Z,36.6
2023-01-19T04:26:28.650Z,36.6
2023-01-19T04:31:51.245Z,36.6
2023-01-19T04:37:01.338Z,36.5
2023-01-19T04:42:23.868Z,36.5
2023-01-19T04:47:31.591Z,36.5
2023-01-19T04:52:40.399Z,36.4
2023-01-19T04:58:03.248Z,36.4
2023-01-19T05:03:26.822Z,36.4
2023-01-19T05:13:55.883Z,36.3
2023-01-19T05:19:03.217Z,36.3
2023-01-19T05:29:20.661Z,36.1
2023-01-19T05:34:44.466Z,36
2023-01-19T05:40:30.251Z,36
2023-01-19T05:45:54.047Z,35.9
2023-01-19T05:51:17.059Z,35.9
2023-01-19T05:56:39.780Z,35.9
2023-01-19T06:02:03.291Z,35.8
2023-01-19T06:07:28.227Z,35.8
2023-01-19T06:12:36.126Z,35.8
2023-01-19T06:17:58.950Z,35.7
2023-01-19T06:23:21.769Z,35.6
2023-01-19T06:28:46.198Z,35.6
2023-01-19T06:34:09.585Z,35.6
2023-01-19T06:39:32.170Z,35.5
2023-01-19T06:44:55.001Z,35.5
2023-01-19T06:50:17.863Z,35.4
2023-01-19T06:55:25.415Z,35.4
2023-01-19T07:00:54.971Z,35.4
2023-01-19T07:06:41.786Z,35.3
2023-01-19T07:13:05.395Z,35.3
2023-01-19T07:18:29.315Z,35.3
2023-01-19T07:23:52.597Z,23.3
2023-01-19T07:29:14.829Z,37.9
2023-01-19T07:34:38.434Z,37.1
2023-01-19T07:40:01.165Z,37.1
2023-01-19T07:45:23.852Z,44.8
2023-01-19T07:50:46.744Z,43.4
2023-01-19T07:56:09.030Z,45.6
2023-01-19T08:01:32.320Z,46.7
2023-01-19T08:06:56.639Z,47.6
2023-01-19T08:12:03.448Z,48.6
2023-01-19T08:17:26.386Z,49.2
2023-01-19T08:22:49.303Z,50.1
2023-01-19T08:28:14.512Z,50.9
2023-01-19T08:33:35.316Z,51.4
2023-01-19T08:38:57.940Z,52.3
2023-01-19T08:44:20.187Z,52.8
2023-01-19T08:49:52.203Z,53.6
2023-01-19T08:55:15.177Z,54.4
2023-01-19T09:00:32.546Z,55.3
2023-01-19T09:05:41.178Z,55.8
2023-01-19T09:11:05.139Z,56.2
2023-01-19T09:16:28.007Z,57
2023-01-19T09:21:50.846Z,57.7
2023-01-19T09:27:13.877Z,58.2
2023-01-19T09:32:36.630Z,58.7
2023-01-19T09:38:00.184Z,59.1
2023-01-19T09:43:23.499Z,59.3
2023-01-19T09:48:46.629Z,59.3
2023-01-19T09:54:09.406Z,60.5
2023-01-19T09:59:32.497Z,61
2023-01-19T10:04:59.369Z,61.2
2023-01-19T10:10:21.063Z,61.4
2023-01-19T10:15:55.742Z,60.1
2023-01-19T10:21:04.670Z,61.7
2023-01-19T10:26:29.174Z,62.1
2023-01-19T10:31:52.655Z,61.9
2023-01-19T10:37:16.784Z,62.6
2023-01-19T10:42:25.597Z,62.9
2023-01-19T10:47:49.228Z,57.2
2023-01-19T10:58:04.151Z,58.8
2023-01-19T11:02:56.781Z,59.6
2023-01-19T11:08:04.297Z,55.4
2023-01-19T11:13:27.522Z,50.6
2023-01-19T11:18:49.170Z,46.9
2023-01-19T11:24:11.683Z,47.1
2023-01-19T11:29:34.776Z,48
2023-01-19T11:34:58.305Z,50.6
2023-01-19T11:40:20.689Z,49.2
2023-01-19T11:45:55.452Z,49.3
2023-01-19T11:51:06.067Z,51.8
2023-01-19T11:56:13.435Z,49.1
2023-01-19T12:01:05.027Z,47.9
2023-01-19T12:06:12.824Z,47.1
2023-01-19T12:11:20.202Z,46.4
2023-01-19T12:16:42.993Z,46.6
2023-01-19T12:22:10.091Z,46.6
2023-01-19T12:27:34.058Z,43.8
2023-01-19T12:32:58.191Z,42.4
2023-01-19T12:38:05.562Z,40.8
2023-01-19T12:43:28.858Z,40.1
2023-01-19T12:48:56.423Z,39.6
2023-01-19T12:54:21.192Z,39.1
2023-01-19T12:59:43.332Z,38.8
2023-01-19T13:05:06.624Z,38.4
2023-01-19T13:10:29.399Z,38.3
2023-01-19T13:15:57.653Z,38.1
2023-01-19T13:21:20.487Z,37.9
2023-01-19T13:26:42.912Z,37.8
2023-01-19T13:32:06.116Z,37.6
2023-01-19T13:37:29.264Z,37.5
2023-01-19T13:42:52.363Z,37.4
2023-01-19T13:48:03.186Z,37.3
2023-01-19T13:53:28.829Z,37.2
2023-01-19T13:58:51.901Z,37.1
2023-01-19T14:04:17.239Z,36.9
2023-01-19T14:09:39.995Z,36.8
2023-01-19T14:15:11.490Z,37.6
2023-01-19T14:20:36.178Z,37.6
2023-01-19T14:25:58.784Z,37.6
2023-01-19T14:31:22.003Z,37.3
2023-01-19T14:36:29.413Z,36.9
2023-01-19T14:41:51.845Z,34.6
2023-01-19T14:47:15.249Z,34.3
2023-01-19T14:52:52.858Z,34.3
2023-01-19T14:58:15.486Z,34.3
2023-01-19T15:03:51.530Z,34.3
2023-01-19T15:09:14.607Z,34.2
2023-01-19T15:14:21.578Z,34.1
2023-01-19T15:19:44.788Z,34
2023-01-19T15:29:59.897Z,33.8
2023-01-19T15:35:08.380Z,33.8
2023-01-19T15:40:16.489Z,33.7
2023-01-19T15:45:07.555Z,33.6
2023-01-19T15:50:16.274Z,33.6
2023-01-19T15:55:08.449Z,33.5
2023-01-19T16:00:15.579Z,33.5
2023-01-19T16:05:33.957Z,33.4
2023-01-19T16:11:04.860Z,33.3
2023-01-19T16:16:29.291Z,33.2
2023-01-19T16:21:53.870Z,33.1
2023-01-19T16:27:29.059Z,33
2023-01-19T16:32:36.064Z,32.9
2023-01-19T16:43:08.643Z,33.1
2023-01-19T16:48:32.884Z,33.1
2023-01-19T16:53:55.600Z,33.1
2023-01-19T16:59:03.049Z,33.1
2023-01-19T17:04:26.327Z,33
2023-01-19T17:09:49.456Z,32.9
2023-01-19T17:15:12.261Z,32.8
2023-01-19T17:25:42.023Z,32.7
2023-01-19T17:30:34.045Z,32.6
2023-01-19T17:35:42.114Z,32.6
2023-01-19T17:40:49.268Z,32.5
2023-01-19T17:45:56.406Z,32.5
2023-01-19T17:50:48.038Z,32.4
2023-01-19T17:55:43.182Z,32.4
2023-01-19T18:01:05.704Z,32.4
2023-01-19T18:06:31.184Z,32.4
2023-01-19T18:17:05.639Z,32.3
2023-01-19T18:22:30.216Z,32.3
2023-01-19T18:27:54.839Z,32.2
2023-01-19T18:33:04.277Z,32.2
2023-01-19T18:38:29.363Z,32.1
2023-01-19T18:43:55.125Z,32.1
2023-01-19T18:49:23.133Z,32.1
2023-01-19T18:54:59.615Z,32.1
2023-01-19T19:00:35.533Z,32.1
2023-01-19T19:06:19.455Z,32
2023-01-19T19:11:41.505Z,32
2023-01-19T19:17:17.279Z,31.9
2023-01-19T19:22:21.130Z,31.9
2023-01-19T19:27:55.874Z,31.9
2023-01-19T19:38:40.594Z,31.9
2023-01-19T19:44:24.364Z,31.8
2023-01-19T19:49:49.406Z,31.8
2023-01-19T19:55:37.119Z,31.8
2023-01-19T20:01:17.694Z,31.7
2023-01-19T20:06:42.125Z,31.7
2023-01-19T20:12:24.773Z,31.7
2023-01-19T20:17:49.703Z,31.7
2023-01-19T20:23:27.202Z,31.6
2023-01-19T20:28:47.473Z,31.6
2023-01-19T20:34:04.252Z,31.4
2023-01-19T20:39:16.209Z,31.3
2023-01-19T20:49:40.177Z,31.2
2023-01-19T20:54:50.447Z,31.1
2023-01-19T21:00:01.483Z,30.9
2023-01-19T21:05:17.194Z,29.9
2023-01-19T21:10:28.052Z,29.3
2023-01-19T21:15:41.327Z,28.8
2023-01-19T21:25:51.139Z,27.6
2023-01-19T21:30:58.986Z,27.1
2023-01-19T21:36:06.793Z,26.8
2023-01-19T21:40:58.721Z,26.5
2023-01-19T21:46:06.207Z,26.3
2023-01-19T21:51:13.813Z,26.1
2023-01-19T21:56:21.253Z,25.9
2023-01-19T22:01:28.102Z,25.8
2023-01-19T22:07:02.489Z,25.7
2023-01-19T22:12:11.290Z,25.6
2023-01-19T22:22:10.767Z,25.4
2023-01-19T22:27:17.966Z,25.4
2023-01-19T22:32:25.969Z,25.3
2023-01-19T22:37:49.051Z,25.3
2023-01-19T22:43:12.530Z,25.2
2023-01-19T22:48:36.935Z,25.2
2023-01-19T22:53:44.731Z,25.1
2023-01-19T22:59:07.406Z,25.1
2023-01-19T23:04:16.316Z,25
2023-01-19T23:09:39.312Z,24.9
2023-01-19T23:14:46.149Z,24.9
2023-01-19T23:19:53.381Z,24.8
2023-01-19T23:25:01.101Z,24.8
2023-01-19T23:30:23.445Z,24.7
2023-01-19T23:35:46.038Z,24.7
2023-01-19T23:41:08.820Z,24.6
2023-01-19T23:46:31.022Z,24.6
2023-01-19T23:51:22.307Z,24.6
2023-01-19T23:56:14.189Z,24.6
